Robertsport/Cape Mount Airport

Jump to: basic info | weather | comments

Related pages: nearby airports | nearby navaids | notams | map

Basic information (top)

Codes: GLCM
Location: lon 6.800000, lat -11.367000, elev 10 ft / 3 m msl
Status: small_airport

Weather (top)

Current conditions for Roberts International Airport 69nm (128km) ESE (rec'd 2014/07/26 17:00Z):

GLRB 261700Z 16004KT 2500 +RA BKN004 OVC011 FEW022 CB 25/24 Q1012 RMK CB-SE TEMPO 3000 RA

Airport forecast for Roberts International Airport 69nm (128km) ESE (rec'd 2014/07/26 12:51Z):

TAF GLRB 261000Z 2612/2718 24012KT 8000 BKN015 FEW024CB 
      BECMG 2614/2616 22009KT 99999 BKN016 FEW025CB 
      TEMPO 2617/2623 18006KT 7000 RA/RADZ SCT005 BKN014 FEW023CB

Latest comments (top)

No comments yet for Robertsport/Cape Mount Airport

More... (top)

See also NOTAMs and nearby airports and navaids, or visit the Robertsport/Cape Mount Airport page at the main OurAirports website..